^^
Marion, Virginia Banner
 

Adwolf, VA. Station Historical Data
[ Providing Data Since 6/07/2007 ]
Daily Summary for April 20, 2012 Units:  Both    English   Metric
« Previous Day
Next Day »
Daily Weekly Monthly Yearly Custom
  High: Low: Average:
Temperature: 73.6 °F /  23.1 °C 44.6 °F /  7 °C 59.2 °F /  15.1 °C
Dew Point: 56.5 °F /  13.6 °C 43.9 °F /  6.6 °C 51.2 °F /  10.7 °C
Humidity: 99% 49% 78%
Wind Speed: 9.2mph /  14.8km/h - 3.1mph /  5km/h
Wind Gust: 9.2mph /  14.8km/h - -
Wind- - South
Pressure: 30.00 in /  1015.8 hPa 29.81 in /  1009.4 hPa -
Precipitation: 0.00 in /  0 mm    
Historical Graphs
 
 
Tabular Data for April 20, 2012
Time Temperature Dew Point Pressure Wind Wind Speed Wind Gust Humidity Rainfall Rate (Hourly)
00:00 53.3 °F /  11.8 °C 49.5 °F /  9.7 °C 30.00in /  1015.8hPa NE 1.2mph /  1.9km/h 1.2mph /  1.9km/h 87% 0.00in /  0mm
00:05 53.0 °F /  11.7 °C 49.5 °F /  9.7 °C 30.00in /  1015.8hPa NNE 1.2mph /  1.9km/h 1.2mph /  1.9km/h 88% 0.00in /  0mm
00:10 52.8 °F /  11.6 °C 49.3 °F /  9.6 °C 30.00in /  1015.8hPa NNE 1.0mph /  1.6km/h   88% 0.00in /  0mm
00:15 52.5 °F /  11.4 °C 49.0 °F /  9.4 °C 30.00in /  1015.8hPa Calm     88% 0.00in /  0mm
00:20 52.2 °F /  11.2 °C 49.1 °F /  9.5 °C 30.00in /  1015.8hPa Calm     89% 0.00in /  0mm
00:25 51.8 °F /  11 °C 48.7 °F /  9.3 °C 30.00in /  1015.8hPa Calm     89% 0.00in /  0mm
00:30 51.6 °F /  10.9 °C 48.8 °F /  9.3 °C 30.00in /  1015.8hPa NNE 1.2mph /  1.9km/h   90% 0.00in /  0mm
00:35 51.3 °F /  10.7 °C 48.8 °F /  9.3 °C 30.00in /  1015.8hPa NNE 1.2mph /  1.9km/h 1.2mph /  1.9km/h 91% 0.00in /  0mm
00:40 51.2 °F /  10.7 °C 48.7 °F /  9.3 °C 30.00in /  1015.8hPa Calm     91% 0.00in /  0mm
00:41 51.2 °F /  10.7 °C 48.7 °F /  9.3 °C 30.00in /  1015.8hPa Calm     91% 0.00in /  0mm
00:46 51.0 °F /  10.6 °C 48.8 °F /  9.3 °C 30.00in /  1015.8hPa Calm     92% 0.00in /  0mm
00:51 50.8 °F /  10.4 °C 48.6 °F /  9.2 °C 30.00in /  1015.8hPa NNE 1.2mph /  1.9km/h 1.2mph /  1.9km/h 92% 0.00in /  0mm
00:56 50.5 °F /  10.3 °C 48.3 °F /  9.1 °C 29.99in /  1015.5hPa Calm     92% 0.00in /  0mm
01:01 50.3 °F /  10.2 °C 48.1 °F /  8.9 °C 29.99in /  1015.5hPa Calm     92% 0.00in /  0mm
01:06 49.9 °F /  9.9 °C 47.7 °F /  8.7 °C 29.99in /  1015.5hPa NNE 1.2mph /  1.9km/h   92% 0.00in /  0mm
01:11 49.7 °F /  9.8 °C 47.8 °F /  8.8 °C 29.99in /  1015.5hPa Calm     93% 0.00in /  0mm
01:16 49.8 °F /  9.9 °C 48.1 °F /  8.9 °C 29.99in /  1015.5hPa Calm     94% 0.00in /  0mm
01:21 49.7 °F /  9.8 °C 48.0 °F /  8.9 °C 29.99in /  1015.5hPa Calm     94% 0.00in /  0mm
01:26 49.5 °F /  9.7 °C 47.8 °F /  8.8 °C 29.99in /  1015.5hPa Calm     94% 0.00in /  0mm
01:31 49.2 °F /  9.6 °C 47.5 °F /  8.6 °C 29.99in /  1015.5hPa Calm     94% 0.00in /  0mm
01:36 49.1 °F /  9.5 °C 47.4 °F /  8.6 °C 29.99in /  1015.5hPa Calm     94% 0.00in /  0mm
01:41 49.0 °F /  9.4 °C 47.3 °F /  8.5 °C 29.99in /  1015.5hPa Calm     94% 0.00in /  0mm
01:46 49.0 °F /  9.4 °C 47.6 °F /  8.7 °C 29.99in /  1015.5hPa Calm     95% 0.00in /  0mm
01:52 48.9 °F /  9.4 °C 47.5 °F /  8.6 °C 29.98in /  1015.1hPa Calm     95% 0.00in /  0mm
01:57 48.9 °F /  9.4 °C 47.5 °F /  8.6 °C 29.98in /  1015.1hPa Calm     95% 0.00in /  0mm
02:02 48.5 °F /  9.2 °C 46.9 °F /  8.3 °C 29.98in /  1015.1hPa Calm     94% 0.00in /  0mm
02:07 48.0 °F /  8.9 °C 46.4 °F /  8 °C 29.98in /  1015.1hPa Calm     94% 0.00in /  0mm
02:12 47.6 °F /  8.7 °C 46.0 °F /  7.8 °C 29.98in /  1015.1hPa Calm     94% 0.00in /  0mm
02:17 47.3 °F /  8.5 °C 45.9 °F /  7.7 °C 29.97in /  1014.8hPa Calm     95% 0.00in /  0mm
02:22 47.0 °F /  8.3 °C 45.6 °F /  7.6 °C 29.97in /  1014.8hPa Calm     95% 0.00in /  0mm
02:27 46.9 °F /  8.3 °C 45.8 °F /  7.7 °C 29.97in /  1014.8hPa Calm     96% 0.00in /  0mm
02:32 47.3 °F /  8.5 °C 46.2 °F /  7.9 °C 29.97in /  1014.8hPa Calm     96% 0.00in /  0mm
02:37 47.1 °F /  8.4 °C 46.0 °F /  7.8 °C 29.97in /  1014.8hPa Calm     96% 0.00in /  0mm
02:42 47.2 °F /  8.4 °C 46.4 °F /  8 °C 29.97in /  1014.8hPa Calm     97% 0.00in /  0mm
02:47 47.3 °F /  8.5 °C 46.5 °F /  8.1 °C 29.97in /  1014.8hPa Calm     97% 0.00in /  0mm
02:52 47.1 °F /  8.4 °C 46.0 °F /  7.8 °C 29.97in /  1014.8hPa Calm     96% 0.00in /  0mm
02:57 46.6 °F /  8.1 °C 45.5 °F /  7.5 °C 29.96in /  1014.4hPa Calm     96% 0.00in /  0mm
03:15 46.8 °F /  8.2 °C 46.0 °F /  7.8 °C 29.96in /  1014.4hPa Calm     97% 0.00in /  0mm
03:20 46.5 °F /  8.1 °C 45.7 °F /  7.6 °C 29.96in /  1014.4hPa Calm     97% 0.00in /  0mm
03:25 46.2 °F /  7.9 °C 45.1 °F /  7.3 °C 29.96in /  1014.4hPa Calm     96% 0.00in /  0mm
03:30 46.1 °F /  7.8 °C 45.3 °F /  7.4 °C 29.96in /  1014.4hPa Calm     97% 0.00in /  0mm
03:35 45.7 °F /  7.6 °C 44.9 °F /  7.2 °C 29.96in /  1014.4hPa Calm     97% 0.00in /  0mm
03:40 45.7 °F /  7.6 °C 44.9 °F /  7.2 °C 29.95in /  1014.1hPa Calm     97% 0.00in /  0mm
03:45 46.1 °F /  7.8 °C 45.3 °F /  7.4 °C 29.95in /  1014.1hPa Calm     97% 0.00in /  0mm
03:50 46.0 °F /  7.8 °C 45.2 °F /  7.3 °C 29.95in /  1014.1hPa Calm     97% 0.00in /  0mm
03:55 45.9 °F /  7.7 °C 45.1 °F /  7.3 °C 29.95in /  1014.1hPa Calm     97% 0.00in /  0mm
04:00 45.6 °F /  7.6 °C 44.8 °F /  7.1 °C 29.95in /  1014.1hPa Calm     97% 0.00in /  0mm
04:01 45.6 °F /  7.6 °C 44.8 °F /  7.1 °C 29.95in /  1014.1hPa Calm     97% 0.00in /  0mm
04:06 45.2 °F /  7.3 °C 44.4 °F /  6.9 °C 29.95in /  1014.1hPa Calm     97% 0.00in /  0mm
04:11 44.9 °F /  7.2 °C 44.1 °F /  6.7 °C 29.95in /  1014.1hPa Calm     97% 0.00in /  0mm
04:16 44.7 °F /  7.1 °C 43.9 °F /  6.6 °C 29.95in /  1014.1hPa Calm     97% 0.00in /  0mm
04:21 44.8 °F /  7.1 °C 44.0 °F /  6.7 °C 29.94in /  1013.8hPa NNE 1.2mph /  1.9km/h 1.2mph /  1.9km/h 97% 0.00in /  0mm
04:26 45.4 °F /  7.4 °C 44.9 °F /  7.2 °C 29.94in /  1013.8hPa Calm     98% 0.00in /  0mm
04:31 45.6 °F /  7.6 °C 45.1 °F /  7.3 °C 29.94in /  1013.8hPa Calm     98% 0.00in /  0mm
04:37 45.5 °F /  7.5 °C 45.0 °F /  7.2 °C 29.94in /  1013.8hPa Calm     98% 0.00in /  0mm
04:42 45.6 °F /  7.6 °C 45.1 °F /  7.3 °C 29.94in /  1013.8hPa Calm     98% 0.00in /  0mm
04:48 45.5 °F /  7.5 °C 44.7 °F /  7.1 °C 29.94in /  1013.8hPa Calm     97% 0.00in /  0mm
04:53 45.3 °F /  7.4 °C 44.5 °F /  6.9 °C 29.94in /  1013.8hPa Calm     97% 0.00in /  0mm
04:58 45.1 °F /  7.3 °C 44.3 °F /  6.8 °C 29.94in /  1013.8hPa Calm     97% 0.00in /  0mm
05:03 44.8 °F /  7.1 °C 44.0 °F /  6.7 °C 29.94in /  1013.8hPa Calm     97% 0.00in /  0mm
05:08 44.9 °F /  7.2 °C 44.4 °F /  6.9 °C 29.94in /  1013.8hPa Calm     98% 0.00in /  0mm
05:13 45.1 °F /  7.3 °C 44.6 °F /  7 °C 29.94in /  1013.8hPa Calm     98% 0.00in /  0mm
05:18 44.9 °F /  7.2 °C 44.4 °F /  6.9 °C 29.94in /  1013.8hPa Calm     98% 0.00in /  0mm
05:23 44.8 °F /  7.1 °C 44.3 °F /  6.8 °C 29.94in /  1013.8hPa Calm     98% 0.00in /  0mm
05:28 44.7 °F /  7.1 °C 43.9 °F /  6.6 °C 29.94in /  1013.8hPa Calm     97% 0.00in /  0mm
05:33 44.6 °F /  7 °C 44.1 °F /  6.7 °C 29.94in /  1013.8hPa Calm     98% 0.00in /  0mm
05:38 44.6 °F /  7 °C 44.1 °F /  6.7 °C 29.94in /  1013.8hPa Calm     98% 0.00in /  0mm
05:43 44.7 °F /  7.1 °C 44.2 °F /  6.8 °C 29.94in /  1013.8hPa Calm     98% 0.00in /  0mm
05:49 44.7 °F /  7.1 °C 44.2 °F /  6.8 °C 29.94in /  1013.8hPa Calm     98% 0.00in /  0mm
05:54 44.6 °F /  7 °C 44.1 °F /  6.7 °C 29.94in /  1013.8hPa Calm     98% 0.00in /  0mm
05:59 44.6 °F /  7 °C 44.1 °F /  6.7 °C 29.94in /  1013.8hPa Calm     98% 0.00in /  0mm
06:05 44.7 °F /  7.1 °C 44.2 °F /  6.8 °C 29.94in /  1013.8hPa Calm     98% 0.00in /  0mm
06:10 44.8 °F /  7.1 °C 44.3 °F /  6.8 °C 29.94in /  1013.8hPa Calm     98% 0.00in /  0mm
06:15 44.9 °F /  7.2 °C 44.4 °F /  6.9 °C 29.94in /  1013.8hPa Calm     98% 0.00in /  0mm
06:20 45.1 °F /  7.3 °C 44.6 °F /  7 °C 29.94in /  1013.8hPa East 1.2mph /  1.9km/h 1.2mph /  1.9km/h 98% 0.00in /  0mm
06:25 45.3 °F /  7.4 °C 44.8 °F /  7.1 °C 29.94in /  1013.8hPa Calm     98% 0.00in /  0mm
06:30 45.5 °F /  7.5 °C 45.0 °F /  7.2 °C 29.94in /  1013.8hPa ENE 1.0mph /  1.6km/h   98% 0.00in /  0mm
06:35 45.7 °F /  7.6 °C 45.2 °F /  7.3 °C 29.94in /  1013.8hPa Calm   0.5mph /  0.8km/h 98% 0.00in /  0mm
06:40 45.9 °F /  7.7 °C 45.4 °F /  7.4 °C 29.94in /  1013.8hPa ESE 1.2mph /  1.9km/h   98% 0.00in /  0mm
06:45 46.0 °F /  7.8 °C 45.5 °F /  7.5 °C 29.94in /  1013.8hPa ESE 1.2mph /  1.9km/h 1.2mph /  1.9km/h 98% 0.00in /  0mm
06:50 46.1 °F /  7.8 °C 45.6 °F /  7.6 °C 29.95in /  1014.1hPa Calm     98% 0.00in /  0mm
06:55 46.3 °F /  7.9 °C 45.8 °F /  7.7 °C 29.95in /  1014.1hPa Calm     98% 0.00in /  0mm
07:00 46.5 °F /  8.1 °C 46.0 °F /  7.8 °C 29.95in /  1014.1hPa ENE 1.2mph /  1.9km/h 1.2mph /  1.9km/h 98% 0.00in /  0mm
07:05 46.7 °F /  8.2 °C 46.2 °F /  7.9 °C 29.95in /  1014.1hPa NNW 2.3mph /  3.7km/h   98% 0.00in /  0mm
07:10 47.0 °F /  8.3 °C 46.5 °F /  8.1 °C 29.96in /  1014.4hPa North 2.3mph /  3.7km/h 2.3mph /  3.7km/h 98% 0.00in /  0mm
07:15 47.2 °F /  8.4 °C 46.7 °F /  8.2 °C 29.96in /  1014.4hPa North 3.5mph /  5.6km/h 3.5mph /  5.6km/h 98% 0.00in /  0mm
07:20 47.4 °F /  8.6 °C 46.9 °F /  8.3 °C 29.96in /  1014.4hPa NE 2.3mph /  3.7km/h 2.3mph /  3.7km/h 98% 0.00in /  0mm
07:25 47.6 °F /  8.7 °C 47.1 °F /  8.4 °C 29.96in /  1014.4hPa NNE 2.3mph /  3.7km/h 2.3mph /  3.7km/h 98% 0.00in /  0mm
07:30 47.7 °F /  8.7 °C 47.2 °F /  8.4 °C 29.96in /  1014.4hPa North 4.6mph /  7.4km/h 4.6mph /  7.4km/h 98% 0.00in /  0mm
07:35 47.9 °F /  8.8 °C 47.4 °F /  8.6 °C 29.96in /  1014.4hPa NE 1.0mph /  1.6km/h 3.0mph /  4.8km/h 98% 0.00in /  0mm
07:40 47.9 °F /  8.8 °C 47.4 °F /  8.6 °C 29.96in /  1014.4hPa NNE 3.5mph /  5.6km/h 3.5mph /  5.6km/h 98% 0.00in /  0mm
07:45 48.1 °F /  8.9 °C 47.6 °F /  8.7 °C 29.97in /  1014.8hPa NE 3.5mph /  5.6km/h 3.5mph /  5.6km/h 98% 0.00in /  0mm
07:50 48.3 °F /  9.1 °C 47.8 °F /  8.8 °C 29.97in /  1014.8hPa NNE 2.3mph /  3.7km/h 2.3mph /  3.7km/h 98% 0.00in /  0mm
07:55 48.4 °F /  9.1 °C 47.9 °F /  8.8 °C 29.97in /  1014.8hPa Calm   3.0mph /  4.8km/h 98% 0.00in /  0mm
08:00 48.6 °F /  9.2 °C 48.1 °F /  8.9 °C 29.97in /  1014.8hPa East 2.3mph /  3.7km/h 2.3mph /  3.7km/h 98% 0.00in /  0mm
08:05 48.8 °F /  9.3 °C 48.3 °F /  9.1 °C 29.97in /  1014.8hPa East 1.2mph /  1.9km/h 1.2mph /  1.9km/h 98% 0.00in /  0mm
08:10 49.1 °F /  9.5 °C 48.6 °F /  9.2 °C 29.97in /  1014.8hPa NNE 1.2mph /  1.9km/h 1.2mph /  1.9km/h 98% 0.00in /  0mm
08:15 49.1 °F /  9.5 °C 48.6 °F /  9.2 °C 29.97in /  1014.8hPa ENE 3.5mph /  5.6km/h 3.5mph /  5.6km/h 98% 0.00in /  0mm
08:20 49.2 °F /  9.6 °C 48.7 °F /  9.3 °C 29.98in /  1015.1hPa East 2.3mph /  3.7km/h 2.3mph /  3.7km/h 98% 0.00in /  0mm
08:25 49.5 °F /  9.7 °C 49.0 °F /  9.4 °C 29.98in /  1015.1hPa East 1.2mph /  1.9km/h 1.2mph /  1.9km/h 98% 0.00in /  0mm
08:30 49.6 °F /  9.8 °C 49.1 °F /  9.5 °C 29.98in /  1015.1hPa East 2.3mph /  3.7km/h 2.3mph /  3.7km/h 98% 0.00in /  0mm
08:35 49.7 °F /  9.8 °C 49.2 °F /  9.6 °C 29.98in /  1015.1hPa East 2.3mph /  3.7km/h 2.3mph /  3.7km/h 98% 0.00in /  0mm
08:40 49.9 °F /  9.9 °C 49.4 °F /  9.7 °C 29.98in /  1015.1hPa NNE 2.3mph /  3.7km/h 2.3mph /  3.7km/h 98% 0.00in /  0mm
08:45 50.1 °F /  10.1 °C 49.6 °F /  9.8 °C 29.98in /  1015.1hPa NE 2.3mph /  3.7km/h 2.3mph /  3.7km/h 98% 0.00in /  0mm
08:50 50.4 °F /  10.2 °C 50.1 °F /  10.1 °C 29.98in /  1015.1hPa East 3.5mph /  5.6km/h 3.5mph /  5.6km/h 99% 0.00in /  0mm
08:55 50.7 °F /  10.4 °C 50.4 °F /  10.2 °C 29.98in /  1015.1hPa ENE 3.5mph /  5.6km/h 3.5mph /  5.6km/h 99% 0.00in /  0mm
09:00 51.0 °F /  10.6 °C 50.7 °F /  10.4 °C 29.98in /  1015.1hPa ENE 3.5mph /  5.6km/h 3.5mph /  5.6km/h 99% 0.00in /  0mm
09:01 51.0 °F /  10.6 °C 50.7 °F /  10.4 °C 29.98in /  1015.1hPa ENE 3.5mph /  5.6km/h 3.5mph /  5.6km/h 99% 0.00in /  0mm
09:06 51.7 °F /  10.9 °C 51.4 °F /  10.8 °C 29.98in /  1015.1hPa East 1.2mph /  1.9km/h 1.2mph /  1.9km/h 99% 0.00in /  0mm
09:11 51.6 °F /  10.9 °C 51.1 °F /  10.6 °C 29.98in /  1015.1hPa ENE 3.5mph /  5.6km/h 3.5mph /  5.6km/h 98% 0.00in /  0mm
09:16 51.7 °F /  10.9 °C 51.2 °F /  10.7 °C 29.98in /  1015.1hPa NNE 3.5mph /  5.6km/h 3.5mph /  5.6km/h 98% 0.00in /  0mm
09:21 51.8 °F /  11 °C 51.3 °F /  10.7 °C 29.98in /  1015.1hPa North 4.6mph /  7.4km/h 4.6mph /  7.4km/h 98% 0.00in /  0mm
09:26 52.0 °F /  11.1 °C 51.5 °F /  10.8 °C 29.98in /  1015.1hPa NE 3.5mph /  5.6km/h 3.5mph /  5.6km/h 98% 0.00in /  0mm
09:31 52.4 °F /  11.3 °C 51.9 °F /  11.1 °C 29.98in /  1015.1hPa NE 3.5mph /  5.6km/h 3.5mph /  5.6km/h 98% 0.00in /  0mm
09:36 53.3 °F /  11.8 °C 52.8 °F /  11.6 °C 29.98in /  1015.1hPa ESE 2.3mph /  3.7km/h 2.3mph /  3.7km/h 98% 0.00in /  0mm
09:41 54.2 °F /  12.3 °C 53.4 °F /  11.9 °C 29.98in /  1015.1hPa East 2.3mph /  3.7km/h 2.4mph /  3.9km/h 97% 0.00in /  0mm
09:46 55.1 °F /  12.8 °C 53.7 °F /  12.1 °C 29.98in /  1015.1hPa East 3.5mph /  5.6km/h 3.5mph /  5.6km/h 95% 0.00in /  0mm
09:51 56.1 °F /  13.4 °C 53.2 °F /  11.8 °C 29.98in /  1015.1hPa NE 4.6mph /  7.4km/h 4.6mph /  7.4km/h 90% 0.00in /  0mm
09:56 57.0 °F /  13.9 °C 54.1 °F /  12.3 °C 29.98in /  1015.1hPa NE 3.5mph /  5.6km/h 3.5mph /  5.6km/h 90% 0.00in /  0mm
10:01 57.5 °F /  14.2 °C 54.0 °F /  12.2 °C 29.98in /  1015.1hPa ENE 3.5mph /  5.6km/h 3.5mph /  5.6km/h 88% 0.00in /  0mm
10:06 58.4 °F /  14.7 °C 53.9 °F /  12.2 °C 29.98in /  1015.1hPa NNE 3.5mph /  5.6km/h 3.5mph /  5.6km/h 85% 0.00in /  0mm
10:11 58.7 °F /  14.8 °C 53.5 °F /  11.9 °C 29.98in /  1015.1hPa ENE 4.6mph /  7.4km/h 4.6mph /  7.4km/h 83% 0.00in /  0mm
10:16 59.6 °F /  15.3 °C 54.1 °F /  12.3 °C 29.98in /  1015.1hPa ESE 3.5mph /  5.6km/h 3.5mph /  5.6km/h 82% 0.00in /  0mm
10:21 60.4 °F /  15.8 °C 54.2 °F /  12.3 °C 29.98in /  1015.1hPa NE 3.5mph /  5.6km/h 3.5mph /  5.6km/h 80% 0.00in /  0mm
10:26 61.4 °F /  16.3 °C 54.5 °F /  12.5 °C 29.98in /  1015.1hPa ENE 3.5mph /  5.6km/h 3.5mph /  5.6km/h 78% 0.00in /  0mm
10:31 61.6 °F /  16.4 °C 54.7 °F /  12.6 °C 29.98in /  1015.1hPa SSE 2.3mph /  3.7km/h 2.3mph /  3.7km/h 78% 0.00in /  0mm
10:36 62.4 °F /  16.9 °C 54.4 °F /  12.4 °C 29.98in /  1015.1hPa SSE 3.5mph /  5.6km/h 3.5mph /  5.6km/h 75% 0.00in /  0mm
10:41 63.3 °F /  17.4 °C 54.5 °F /  12.5 °C 29.97in /  1014.8hPa ENE 3.5mph /  5.6km/h 3.5mph /  5.6km/h 73% 0.00in /  0mm
10:46 64.3 °F /  17.9 °C 55.1 °F /  12.8 °C 29.97in /  1014.8hPa East 2.3mph /  3.7km/h 2.3mph /  3.7km/h 72% 0.00in /  0mm
10:52 64.7 °F /  18.2 °C 54.7 °F /  12.6 °C 29.97in /  1014.8hPa North 3.5mph /  5.6km/h 3.5mph /  5.6km/h 70% 0.00in /  0mm
10:57 64.1 °F /  17.8 °C 54.5 °F /  12.5 °C 29.97in /  1014.8hPa South 1.2mph /  1.9km/h   71% 0.00in /  0mm
11:02 65.1 °F /  18.4 °C 55.5 °F /  13.1 °C 29.97in /  1014.8hPa NW 2.3mph /  3.7km/h 2.3mph /  3.7km/h 71% 0.00in /  0mm
11:07 65.9 °F /  18.8 °C 55.4 °F /  13 °C 29.96in /  1014.4hPa South 1.2mph /  1.9km/h 1.2mph /  1.9km/h 69% 0.00in /  0mm
11:12 66.8 °F /  19.3 °C 55.5 °F /  13.1 °C 29.96in /  1014.4hPa NNE 4.6mph /  7.4km/h 4.6mph /  7.4km/h 67% 0.00in /  0mm
11:17 66.0 °F /  18.9 °C 54.3 °F /  12.4 °C 29.96in /  1014.4hPa SW 4.0mph /  6.4km/h 4.0mph /  6.4km/h 66% 0.00in /  0mm
11:22 65.1 °F /  18.4 °C 53.0 °F /  11.7 °C 29.96in /  1014.4hPa NW 4.6mph /  7.4km/h 4.6mph /  7.4km/h 65% 0.00in /  0mm
11:27 65.2 °F /  18.4 °C 54.0 °F /  12.2 °C 29.96in /  1014.4hPa SW 5.8mph /  9.3km/h 5.8mph /  9.3km/h 67% 0.00in /  0mm
11:32 66.3 °F /  19.1 °C 54.6 °F /  12.6 °C 29.96in /  1014.4hPa South 3.5mph /  5.6km/h 3.5mph /  5.6km/h 66% 0.00in /  0mm
11:37 66.6 °F /  19.2 °C 54.5 °F /  12.5 °C 29.96in /  1014.4hPa WNW 2.3mph /  3.7km/h 2.3mph /  3.7km/h 65% 0.00in /  0mm
11:42 66.6 °F /  19.2 °C 54.9 °F /  12.7 °C 29.96in /  1014.4hPa WSW 4.6mph /  7.4km/h 4.6mph /  7.4km/h 66% 0.00in /  0mm
11:47 66.6 °F /  19.2 °C 54.9 °F /  12.7 °C 29.95in /  1014.1hPa SSW 3.5mph /  5.6km/h 3.5mph /  5.6km/h 66% 0.00in /  0mm
11:52 66.7 °F /  19.3 °C 54.1 °F /  12.3 °C 29.95in /  1014.1hPa WNW 5.0mph /  8km/h 5.0mph /  8km/h 64% 0.00in /  0mm
11:57 66.7 °F /  19.3 °C 54.6 °F /  12.6 °C 29.95in /  1014.1hPa SW 5.8mph /  9.3km/h 5.8mph /  9.3km/h 65% 0.00in /  0mm
12:02 66.9 °F /  19.4 °C 54.3 °F /  12.4 °C 29.94in /  1013.8hPa WNW 2.3mph /  3.7km/h 2.3mph /  3.7km/h 64% 0.00in /  0mm
12:07 67.3 °F /  19.6 °C 56.0 °F /  13.3 °C 29.95in /  1014.1hPa West 3.5mph /  5.6km/h 3.5mph /  5.6km/h 67% 0.00in /  0mm
12:12 68.0 °F /  20 °C 54.9 °F /  12.7 °C 29.94in /  1013.8hPa WNW 3.5mph /  5.6km/h 3.5mph /  5.6km/h 63% 0.00in /  0mm
12:17 67.8 °F /  19.9 °C 55.2 °F /  12.9 °C 29.94in /  1013.8hPa WNW 5.8mph /  9.3km/h 5.8mph /  9.3km/h 64% 0.00in /  0mm
12:23 67.3 °F /  19.6 °C 55.5 °F /  13.1 °C 29.94in /  1013.8hPa SSW 5.0mph /  8km/h 5.0mph /  8km/h 66% 0.00in /  0mm
12:28 67.9 °F /  19.9 °C 56.5 °F /  13.6 °C 29.93in /  1013.4hPa NNW 2.3mph /  3.7km/h 3.0mph /  4.8km/h 67% 0.00in /  0mm
12:33 68.1 °F /  20.1 °C 55.9 °F /  13.3 °C 29.93in /  1013.4hPa NNW 3.5mph /  5.6km/h 3.5mph /  5.6km/h 65% 0.00in /  0mm
12:38 68.2 °F /  20.1 °C 55.1 °F /  12.8 °C 29.93in /  1013.4hPa South 4.6mph /  7.4km/h 4.6mph /  7.4km/h 63% 0.00in /  0mm
12:43 69.0 °F /  20.6 °C 55.9 °F /  13.3 °C 29.93in /  1013.4hPa NW 3.5mph /  5.6km/h 3.5mph /  5.6km/h 63% 0.00in /  0mm
12:48 68.5 °F /  20.3 °C 55.4 °F /  13 °C 29.92in /  1013.1hPa WSW 5.8mph /  9.3km/h   63% 0.00in /  0mm
12:53 69.2 °F /  20.7 °C 55.6 °F /  13.1 °C 29.92in /  1013.1hPa SSW 4.6mph /  7.4km/h 5.0mph /  8km/h 62% 0.00in /  0mm
12:58 69.0 °F /  20.6 °C 54.1 °F /  12.3 °C 29.92in /  1013.1hPa SW 6.9mph /  11.1km/h 6.9mph /  11.1km/h 59% 0.00in /  0mm
13:03 69.4 °F /  20.8 °C 55.4 °F /  13 °C 29.92in /  1013.1hPa NNE 6.9mph /  11.1km/h 6.9mph /  11.1km/h 61% 0.00in /  0mm
13:08 69.9 °F /  21.1 °C 56.3 °F /  13.5 °C 29.92in /  1013.1hPa South 3.5mph /  5.6km/h 3.5mph /  5.6km/h 62% 0.00in /  0mm
13:13 69.2 °F /  20.7 °C 55.2 °F /  12.9 °C 29.92in /  1013.1hPa SE 3.5mph /  5.6km/h 3.5mph /  5.6km/h 61% 0.00in /  0mm
13:18 70.0 °F /  21.1 °C 55.9 °F /  13.3 °C 29.91in /  1012.8hPa SW 9.2mph /  14.8km/h 9.2mph /  14.8km/h 61% 0.00in /  0mm
13:23 69.7 °F /  20.9 °C 55.6 °F /  13.1 °C 29.91in /  1012.8hPa West 3.5mph /  5.6km/h 3.5mph /  5.6km/h 61% 0.00in /  0mm
13:28 69.0 °F /  20.6 °C 54.5 °F /  12.5 °C 29.91in /  1012.8hPa WNW 3.5mph /  5.6km/h 3.5mph /  5.6km/h 60% 0.00in /  0mm
13:33 69.3 °F /  20.7 °C 54.4 °F /  12.4 °C 29.91in /  1012.8hPa SSW 4.6mph /  7.4km/h 4.6mph /  7.4km/h 59% 0.00in /  0mm
13:38 69.1 °F /  20.6 °C 54.6 °F /  12.6 °C 29.91in /  1012.8hPa South 3.5mph /  5.6km/h 3.5mph /  5.6km/h 60% 0.00in /  0mm
13:43 69.3 °F /  20.7 °C 55.3 °F /  12.9 °C 29.90in /  1012.4hPa WNW 2.3mph /  3.7km/h 2.3mph /  3.7km/h 61% 0.00in /  0mm
13:48 69.3 °F /  20.7 °C 54.8 °F /  12.7 °C 29.90in /  1012.4hPa West 6.9mph /  11.1km/h 6.9mph /  11.1km/h 60% 0.00in /  0mm
13:53 69.1 °F /  20.6 °C 54.2 °F /  12.3 °C 29.90in /  1012.4hPa SSW 3.5mph /  5.6km/h 3.5mph /  5.6km/h 59% 0.00in /  0mm
13:58 69.2 °F /  20.7 °C 54.7 °F /  12.6 °C 29.90in /  1012.4hPa South 5.8mph /  9.3km/h 5.8mph /  9.3km/h 60% 0.00in /  0mm
14:03 69.2 °F /  20.7 °C 54.7 °F /  12.6 °C 29.90in /  1012.4hPa South 3.5mph /  5.6km/h 3.5mph /  5.6km/h 60% 0.00in /  0mm
14:08 69.0 °F /  20.6 °C 54.1 °F /  12.3 °C 29.89in /  1012.1hPa SSE 3.5mph /  5.6km/h 3.5mph /  5.6km/h 59% 0.00in /  0mm
14:13 69.4 °F /  20.8 °C 54.0 °F /  12.2 °C 29.89in /  1012.1hPa WNW 4.0mph /  6.4km/h 4.0mph /  6.4km/h 58% 0.00in /  0mm
14:18 69.7 °F /  20.9 °C 54.3 °F /  12.4 °C 29.89in /  1012.1hPa WNW 3.5mph /  5.6km/h 3.5mph /  5.6km/h 58% 0.00in /  0mm
14:23 70.1 °F /  21.2 °C 54.2 °F /  12.3 °C 29.89in /  1012.1hPa NW 3.5mph /  5.6km/h 3.5mph /  5.6km/h 57% 0.00in /  0mm
14:28 70.2 °F /  21.2 °C 54.2 °F /  12.3 °C 29.89in /  1012.1hPa SW 3.5mph /  5.6km/h 3.5mph /  5.6km/h 57% 0.00in /  0mm
14:33 70.1 °F /  21.2 °C 53.7 °F /  12.1 °C 29.88in /  1011.7hPa NW 3.5mph /  5.6km/h 3.5mph /  5.6km/h 56% 0.00in /  0mm
14:39 70.5 °F /  21.4 °C 54.0 °F /  12.2 °C 29.88in /  1011.7hPa SSW 1.2mph /  1.9km/h 1.2mph /  1.9km/h 56% 0.00in /  0mm
14:40 70.8 °F /  21.6 °C 54.3 °F /  12.4 °C 29.88in /  1011.7hPa SE 2.0mph /  3.2km/h 2.0mph /  3.2km/h 56% 0.00in /  0mm
14:45 70.6 °F /  21.4 °C 54.1 °F /  12.3 °C 29.88in /  1011.7hPa SSE 4.6mph /  7.4km/h 4.6mph /  7.4km/h 56% 0.00in /  0mm
14:50 70.2 °F /  21.2 °C 54.7 °F /  12.6 °C 29.88in /  1011.7hPa South 2.3mph /  3.7km/h 2.3mph /  3.7km/h 58% 0.00in /  0mm
14:55 70.6 °F /  21.4 °C 54.1 °F /  12.3 °C 29.87in /  1011.4hPa SE 4.6mph /  7.4km/h 4.6mph /  7.4km/h 56% 0.00in /  0mm
15:00 70.1 °F /  21.2 °C 53.7 °F /  12.1 °C 29.87in /  1011.4hPa South 4.6mph /  7.4km/h 4.6mph /  7.4km/h 56% 0.00in /  0mm
15:05 69.4 °F /  20.8 °C 54.4 °F /  12.4 °C 29.87in /  1011.4hPa SSW 5.8mph /  9.3km/h 5.8mph /  9.3km/h 59% 0.00in /  0mm
15:10 69.6 °F /  20.9 °C 54.6 °F /  12.6 °C 29.87in /  1011.4hPa South 3.5mph /  5.6km/h 3.5mph /  5.6km/h 59% 0.00in /  0mm
15:15 69.7 °F /  20.9 °C 54.7 °F /  12.6 °C 29.86in /  1011.1hPa SW 4.6mph /  7.4km/h 4.6mph /  7.4km/h 59% 0.00in /  0mm
15:20 70.2 °F /  21.2 °C 54.7 °F /  12.6 °C 29.86in /  1011.1hPa Calm   0.1mph /  0.2km/h 58% 0.00in /  0mm
15:25 70.5 °F /  21.4 °C 54.5 °F /  12.5 °C 29.85in /  1010.7hPa SW 3.5mph /  5.6km/h 3.5mph /  5.6km/h 57% 0.00in /  0mm
15:30 71.2 °F /  21.8 °C 55.7 °F /  13.2 °C 29.85in /  1010.7hPa NNW 2.3mph /  3.7km/h 2.3mph /  3.7km/h 58% 0.00in /  0mm
15:35 72.1 °F /  22.3 °C 55.0 °F /  12.8 °C 29.85in /  1010.7hPa SW 4.6mph /  7.4km/h 4.6mph /  7.4km/h 55% 0.00in /  0mm
15:36 72.2 °F /  22.3 °C 55.1 °F /  12.8 °C 29.85in /  1010.7hPa West 4.6mph /  7.4km/h 4.6mph /  7.4km/h 55% 0.00in /  0mm
15:41 72.6 °F /  22.6 °C 56.5 °F /  13.6 °C 29.85in /  1010.7hPa West 3.5mph /  5.6km/h 3.5mph /  5.6km/h 57% 0.00in /  0mm
15:47 72.7 °F /  22.6 °C 54.1 °F /  12.3 °C 29.85in /  1010.7hPa West 3.5mph /  5.6km/h 3.5mph /  5.6km/h 52% 0.00in /  0mm
15:52 71.9 °F /  22.2 °C 54.3 °F /  12.4 °C 29.85in /  1010.7hPa NNE 1.2mph /  1.9km/h 1.2mph /  1.9km/h 54% 0.00in /  0mm
15:57 72.1 °F /  22.3 °C 54.5 °F /  12.5 °C 29.85in /  1010.7hPa SSW 3.5mph /  5.6km/h 3.5mph /  5.6km/h 54% 0.00in /  0mm
16:02 72.0 °F /  22.2 °C 54.9 °F /  12.7 °C 29.84in /  1010.4hPa WNW 3.5mph /  5.6km/h 3.5mph /  5.6km/h 55% 0.00in /  0mm
16:07 71.5 °F /  21.9 °C 54.5 °F /  12.5 °C 29.84in /  1010.4hPa SW 4.6mph /  7.4km/h 4.6mph /  7.4km/h 55% 0.00in /  0mm
16:12 71.0 °F /  21.7 °C 54.0 °F /  12.2 °C 29.84in /  1010.4hPa SSW 2.3mph /  3.7km/h 2.3mph /  3.7km/h 55% 0.00in /  0mm
16:17 71.6 °F /  22 °C 55.1 °F /  12.8 °C 29.84in /  1010.4hPa WNW 4.6mph /  7.4km/h 4.6mph /  7.4km/h 56% 0.00in /  0mm
16:22 71.7 °F /  22.1 °C 54.2 °F /  12.3 °C 29.84in /  1010.4hPa WNW 4.6mph /  7.4km/h 4.6mph /  7.4km/h 54% 0.00in /  0mm
16:27 70.7 °F /  21.5 °C 53.2 °F /  11.8 °C 29.84in /  1010.4hPa SW 3.5mph /  5.6km/h 3.5mph /  5.6km/h 54% 0.00in /  0mm
16:32 71.0 °F /  21.7 °C 55.0 °F /  12.8 °C 29.84in /  1010.4hPa SSE 3.5mph /  5.6km/h 3.5mph /  5.6km/h 57% 0.00in /  0mm
16:37 71.3 °F /  21.8 °C 53.8 °F /  12.1 °C 29.84in /  1010.4hPa North 3.5mph /  5.6km/h 3.5mph /  5.6km/h 54% 0.00in /  0mm
16:42 71.9 °F /  22.2 °C 54.3 °F /  12.4 °C 29.84in /  1010.4hPa North 3.5mph /  5.6km/h 3.5mph /  5.6km/h 54% 0.00in /  0mm
16:48 72.4 °F /  22.4 °C 54.8 °F /  12.7 °C 29.83in /  1010hPa WSW 6.9mph /  11.1km/h 6.9mph /  11.1km/h 54% 0.00in /  0mm
16:53 72.6 °F /  22.6 °C 54.5 °F /  12.5 °C 29.83in /  1010hPa SSW 3.5mph /  5.6km/h 3.6mph /  5.8km/h 53% 0.00in /  0mm
16:58 72.6 °F /  22.6 °C 54.5 °F /  12.5 °C 29.83in /  1010hPa SW 3.5mph /  5.6km/h 3.5mph /  5.6km/h 53% 0.00in /  0mm
17:03 72.1 °F /  22.3 °C 54.0 °F /  12.2 °C 29.84in /  1010.4hPa SW 3.5mph /  5.6km/h 3.5mph /  5.6km/h 53% 0.00in /  0mm
17:08 71.9 °F /  22.2 °C 53.8 °F /  12.1 °C 29.83in /  1010hPa WSW 1.2mph /  1.9km/h 1.2mph /  1.9km/h 53% 0.00in /  0mm
17:13 72.4 °F /  22.4 °C 54.3 °F /  12.4 °C 29.83in /  1010hPa WNW 1.2mph /  1.9km/h 1.2mph /  1.9km/h 53% 0.00in /  0mm
17:18 73.3 °F /  22.9 °C 54.1 °F /  12.3 °C 29.83in /  1010hPa SSW 2.3mph /  3.7km/h 2.3mph /  3.7km/h 51% 0.00in /  0mm
17:23 73.4 °F /  23 °C 53.6 °F /  12 °C 29.83in /  1010hPa SW 4.6mph /  7.4km/h 4.6mph /  7.4km/h 50% 0.00in /  0mm
17:28 73.4 °F /  23 °C 53.6 °F /  12 °C 29.83in /  1010hPa SSE 1.2mph /  1.9km/h 1.5mph /  2.4km/h 50% 0.00in /  0mm
17:33 73.6 °F /  23.1 °C 54.4 °F /  12.4 °C 29.83in /  1010hPa South 3.5mph /  5.6km/h 3.5mph /  5.6km/h 51% 0.00in /  0mm
17:38 73.3 °F /  22.9 °C 53.0 °F /  11.7 °C 29.83in /  1010hPa SSW 3.5mph /  5.6km/h 3.5mph /  5.6km/h 49% 0.00in /  0mm
17:43 73.0 °F /  22.8 °C 53.8 °F /  12.1 °C 29.82in /  1009.7hPa Calm   0.1mph /  0.2km/h 51% 0.00in /  0mm
17:49 72.9 °F /  22.7 °C 53.7 °F /  12.1 °C 29.82in /  1009.7hPa Calm   0.3mph /  0.5km/h 51% 0.00in /  0mm
17:54 72.7 °F /  22.6 °C 54.1 °F /  12.3 °C 29.82in /  1009.7hPa WSW 1.2mph /  1.9km/h 1.2mph /  1.9km/h 52% 0.00in /  0mm
17:59 72.2 °F /  22.3 °C 53.1 °F /  11.7 °C 29.82in /  1009.7hPa SW 3.5mph /  5.6km/h 3.5mph /  5.6km/h 51% 0.00in /  0mm
18:04 72.0 °F /  22.2 °C 53.9 °F /  12.2 °C 29.82in /  1009.7hPa West 3.0mph /  4.8km/h 3.0mph /  4.8km/h 53% 0.00in /  0mm
18:09 71.8 °F /  22.1 °C 53.2 °F /  11.8 °C 29.82in /  1009.7hPa SW 3.5mph /  5.6km/h 3.5mph /  5.6km/h 52% 0.00in /  0mm
18:14 71.3 °F /  21.8 °C 52.8 °F /  11.6 °C 29.82in /  1009.7hPa WNW 4.6mph /  7.4km/h 4.6mph /  7.4km/h 52% 0.00in /  0mm
18:19 70.7 °F /  21.5 °C 52.7 °F /  11.5 °C 29.82in /  1009.7hPa WSW 3.5mph /  5.6km/h 3.5mph /  5.6km/h 53% 0.00in /  0mm
18:24 70.4 °F /  21.3 °C 52.4 °F /  11.3 °C 29.82in /  1009.7hPa WNW 2.3mph /  3.7km/h 2.3mph /  3.7km/h 53% 0.00in /  0mm
18:29 70.3 °F /  21.3 °C 52.9 °F /  11.6 °C 29.81in /  1009.4hPa NW 1.2mph /  1.9km/h 1.2mph /  1.9km/h 54% 0.00in /  0mm
18:35 70.2 °F /  21.2 °C 52.8 °F /  11.6 °C 29.81in /  1009.4hPa West 3.5mph /  5.6km/h 3.5mph /  5.6km/h 54% 0.00in /  0mm
18:40 70.1 °F /  21.2 °C 52.7 °F /  11.5 °C 29.81in /  1009.4hPa SW 3.5mph /  5.6km/h 3.5mph /  5.6km/h 54% 0.00in /  0mm
18:45 70.0 °F /  21.1 °C 52.6 °F /  11.4 °C 29.81in /  1009.4hPa South 4.0mph /  6.4km/h 4.0mph /  6.4km/h 54% 0.00in /  0mm
18:51 69.8 °F /  21 °C 52.4 °F /  11.3 °C 29.81in /  1009.4hPa SW 3.5mph /  5.6km/h 3.5mph /  5.6km/h 54% 0.00in /  0mm
18:56 69.6 °F /  20.9 °C 52.7 °F /  11.5 °C 29.81in /  1009.4hPa WNW 2.3mph /  3.7km/h 2.6mph /  4.2km/h 55% 0.00in /  0mm
19:01 69.4 °F /  20.8 °C 53.0 °F /  11.7 °C 29.81in /  1009.4hPa SSW 2.3mph /  3.7km/h 2.3mph /  3.7km/h 56% 0.00in /  0mm
19:06 69.3 °F /  20.7 °C 52.9 °F /  11.6 °C 29.81in /  1009.4hPa WSW 3.5mph /  5.6km/h 3.5mph /  5.6km/h 56% 0.00in /  0mm
19:11 69.3 °F /  20.7 °C 53.9 °F /  12.2 °C 29.81in /  1009.4hPa Calm     58% 0.00in /  0mm
19:16 69.2 °F /  20.7 °C 52.8 °F /  11.6 °C 29.81in /  1009.4hPa SSW 3.5mph /  5.6km/h 3.5mph /  5.6km/h 56% 0.00in /  0mm
19:22 69.0 °F /  20.6 °C 53.6 °F /  12 °C 29.81in /  1009.4hPa SW 3.5mph /  5.6km/h 3.5mph /  5.6km/h 58% 0.00in /  0mm
19:27 68.7 °F /  20.4 °C 53.3 °F /  11.8 °C 29.81in /  1009.4hPa West 3.5mph /  5.6km/h 3.5mph /  5.6km/h 58% 0.00in /  0mm
19:32 68.5 °F /  20.3 °C 53.6 °F /  12 °C 29.81in /  1009.4hPa WSW 2.3mph /  3.7km/h 2.3mph /  3.7km/h 59% 0.00in /  0mm
19:37 68.4 °F /  20.2 °C 53.5 °F /  11.9 °C 29.81in /  1009.4hPa SSW 2.3mph /  3.7km/h 2.3mph /  3.7km/h 59% 0.00in /  0mm
19:42 68.2 °F /  20.1 °C 53.8 °F /  12.1 °C 29.81in /  1009.4hPa SW 2.3mph /  3.7km/h 2.3mph /  3.7km/h 60% 0.00in /  0mm
19:47 68.0 °F /  20 °C 53.6 °F /  12 °C 29.81in /  1009.4hPa South 3.5mph /  5.6km/h 3.5mph /  5.6km/h 60% 0.00in /  0mm
19:52 67.7 °F /  19.8 °C 53.3 °F /  11.8 °C 29.81in /  1009.4hPa SW 3.5mph /  5.6km/h 3.5mph /  5.6km/h 60% 0.00in /  0mm
19:57 67.5 °F /  19.7 °C 53.1 °F /  11.7 °C 29.81in /  1009.4hPa SSW 3.5mph /  5.6km/h 3.5mph /  5.6km/h 60% 0.00in /  0mm
20:02 67.3 °F /  19.6 °C 53.4 °F /  11.9 °C 29.81in /  1009.4hPa SW 1.2mph /  1.9km/h 1.2mph /  1.9km/h 61% 0.00in /  0mm
20:07 67.1 °F /  19.5 °C 53.2 °F /  11.8 °C 29.81in /  1009.4hPa SW 1.2mph /  1.9km/h 1.2mph /  1.9km/h 61% 0.00in /  0mm
20:12 66.7 °F /  19.3 °C 53.3 °F /  11.8 °C 29.82in /  1009.7hPa West 3.5mph /  5.6km/h 3.5mph /  5.6km/h 62% 0.00in /  0mm
20:17 66.6 °F /  19.2 °C 53.6 °F /  12 °C 29.82in /  1009.7hPa SW 2.0mph /  3.2km/h 2.0mph /  3.2km/h 63% 0.00in /  0mm
20:22 66.5 °F /  19.2 °C 53.5 °F /  11.9 °C 29.82in /  1009.7hPa SW 2.3mph /  3.7km/h 2.3mph /  3.7km/h 63% 0.00in /  0mm
20:27 66.4 °F /  19.1 °C 53.4 °F /  11.9 °C 29.82in /  1009.7hPa South 1.2mph /  1.9km/h 1.2mph /  1.9km/h 63% 0.00in /  0mm
20:32 66.1 °F /  18.9 °C 53.1 °F /  11.7 °C 29.82in /  1009.7hPa SW 2.3mph /  3.7km/h 2.3mph /  3.7km/h 63% 0.00in /  0mm
20:37 65.8 °F /  18.8 °C 53.3 °F /  11.8 °C 29.82in /  1009.7hPa SSW 1.2mph /  1.9km/h 1.2mph /  1.9km/h 64% 0.00in /  0mm
20:42 65.4 °F /  18.6 °C 53.3 °F /  11.8 °C 29.82in /  1009.7hPa South 1.2mph /  1.9km/h 1.2mph /  1.9km/h 65% 0.00in /  0mm
20:48 65.2 °F /  18.4 °C 53.6 °F /  12 °C 29.82in /  1009.7hPa Calm     66% 0.00in /  0mm
20:53 64.9 °F /  18.3 °C 53.7 °F /  12.1 °C 29.82in /  1009.7hPa Calm   0.2mph /  0.3km/h 67% 0.00in /  0mm
20:58 64.6 °F /  18.1 °C 53.4 °F /  11.9 °C 29.82in /  1009.7hPa Calm     67% 0.00in /  0mm
21:03 64.3 °F /  17.9 °C 53.5 °F /  11.9 °C 29.82in /  1009.7hPa Calm     68% 0.00in /  0mm
21:08 64.0 °F /  17.8 °C 53.6 °F /  12 °C 29.82in /  1009.7hPa Calm     69% 0.00in /  0mm
21:13 63.8 °F /  17.7 °C 53.8 °F /  12.1 °C 29.82in /  1009.7hPa Calm     70% 0.00in /  0mm
21:18 63.7 °F /  17.6 °C 53.7 °F /  12.1 °C 29.82in /  1009.7hPa Calm     70% 0.00in /  0mm
21:23 63.5 °F /  17.5 °C 53.9 °F /  12.2 °C 29.83in /  1010hPa Calm     71% 0.00in /  0mm
21:28 63.5 °F /  17.5 °C 53.5 °F /  11.9 °C 29.83in /  1010hPa South 1.2mph /  1.9km/h 1.2mph /  1.9km/h 70% 0.00in /  0mm
21:33 63.2 °F /  17.3 °C 53.3 °F /  11.8 °C 29.83in /  1010hPa Calm     70% 0.00in /  0mm
21:38 62.8 °F /  17.1 °C 53.3 °F /  11.8 °C 29.83in /  1010hPa Calm     71% 0.00in /  0mm
21:43 62.6 °F /  17 °C 53.4 °F /  11.9 °C 29.83in /  1010hPa South 1.2mph /  1.9km/h 1.2mph /  1.9km/h 72% 0.00in /  0mm
21:48 62.5 °F /  16.9 °C 53.7 °F /  12.1 °C 29.83in /  1010hPa South 1.2mph /  1.9km/h   73% 0.00in /  0mm
21:53 62.3 °F /  16.8 °C 54.6 °F /  12.6 °C 29.83in /  1010hPa Calm     76% 0.00in /  0mm
21:58 61.8 °F /  16.6 °C 54.9 °F /  12.7 °C 29.83in /  1010hPa Calm     78% 0.00in /  0mm
22:03 61.5 °F /  16.4 °C 54.9 °F /  12.7 °C 29.83in /  1010hPa Calm     79% 0.00in /  0mm
22:08 61.3 °F /  16.3 °C 54.7 °F /  12.6 °C 29.83in /  1010hPa Calm     79% 0.00in /  0mm
22:13 61.1 °F /  16.2 °C 54.5 °F /  12.5 °C 29.83in /  1010hPa Calm     79% 0.00in /  0mm
22:18 60.9 °F /  16.1 °C 54.3 °F /  12.4 °C 29.83in /  1010hPa Calm     79% 0.00in /  0mm
22:23 60.8 °F /  16 °C 54.6 °F /  12.6 °C 29.83in /  1010hPa Calm     80% 0.00in /  0mm
22:28 60.6 °F /  15.9 °C 54.4 °F /  12.4 °C 29.83in /  1010hPa Calm     80% 0.00in /  0mm
22:33 60.5 °F /  15.8 °C 54.6 °F /  12.6 °C 29.83in /  1010hPa Calm     81% 0.00in /  0mm
22:38 60.5 °F /  15.8 °C 55.0 °F /  12.8 °C 29.82in /  1009.7hPa Calm     82% 0.00in /  0mm
22:43 60.4 °F /  15.8 °C 54.5 °F /  12.5 °C 29.83in /  1010hPa South 1.2mph /  1.9km/h   81% 0.00in /  0mm
22:48 60.2 °F /  15.7 °C 54.3 °F /  12.4 °C 29.82in /  1009.7hPa Calm     81% 0.00in /  0mm
22:53 60.1 °F /  15.6 °C 54.6 °F /  12.6 °C 29.82in /  1009.7hPa Calm     82% 0.00in /  0mm
22:58 59.9 °F /  15.5 °C 54.1 °F /  12.3 °C 29.82in /  1009.7hPa Calm     81% 0.00in /  0mm
23:03 59.8 °F /  15.4 °C 54.3 °F /  12.4 °C 29.82in /  1009.7hPa Calm     82% 0.00in /  0mm
23:08 59.7 °F /  15.4 °C 54.2 °F /  12.3 °C 29.82in /  1009.7hPa Calm     82% 0.00in /  0mm
23:13 59.6 °F /  15.3 °C 54.4 °F /  12.4 °C 29.82in /  1009.7hPa Calm     83% 0.00in /  0mm
23:18 59.5 °F /  15.3 °C 54.7 °F /  12.6 °C 29.82in /  1009.7hPa Calm     84% 0.00in /  0mm
23:23 59.4 °F /  15.2 °C 54.9 °F /  12.7 °C 29.82in /  1009.7hPa Calm     85% 0.00in /  0mm
23:28 59.1 °F /  15.1 °C 54.3 °F /  12.4 °C 29.82in /  1009.7hPa Calm     84% 0.00in /  0mm
23:33 58.9 °F /  14.9 °C 54.1 °F /  12.3 °C 29.82in /  1009.7hPa Calm     84% 0.00in /  0mm
23:38 58.6 °F /  14.8 °C 53.8 °F /  12.1 °C 29.82in /  1009.7hPa Calm     84% 0.00in /  0mm
23:43 58.3 °F /  14.6 °C 53.8 °F /  12.1 °C 29.82in /  1009.7hPa Calm     85% 0.00in /  0mm
23:48 58.0 °F /  14.4 °C 53.5 °F /  11.9 °C 29.82in /  1009.7hPa Calm     85% 0.00in /  0mm
23:53 57.7 °F /  14.3 °C 53.2 °F /  11.8 °C 29.82in /  1009.7hPa Calm     85% 0.00in /  0mm
23:58 57.5 °F /  14.2 °C 53.7 °F /  12.1 °C 29.82in /  1009.7hPa Calm     87% 0.00in /  0mm
Smyth Weather
Compliments of Weather Underground